sensor_id;sensor_type;location;lat;lon;timestamp;temperature;humidity
25616;DHT22;13482;48.234;13.006;2023-09-18T00:00:54;21.20;65.90
25616;DHT22;13482;48.234;13.006;2023-09-18T00:03:23;21.20;65.80
25616;DHT22;13482;48.234;13.006;2023-09-18T00:05:53;21.10;65.80
25616;DHT22;13482;48.234;13.006;2023-09-18T00:08:21;21.10;65.90
25616;DHT22;13482;48.234;13.006;2023-09-18T00:10:51;21.10;65.80
25616;DHT22;13482;48.234;13.006;2023-09-18T00:13:21;21.00;65.70
25616;DHT22;13482;48.234;13.006;2023-09-18T00:15:49;21.00;65.50
25616;DHT22;13482;48.234;13.006;2023-09-18T00:18:18;21.00;65.70
25616;DHT22;13482;48.234;13.006;2023-09-18T00:20:46;20.90;65.90
25616;DHT22;13482;48.234;13.006;2023-09-18T00:23:15;20.90;65.90
25616;DHT22;13482;48.234;13.006;2023-09-18T00:25:43;20.90;66.00
25616;DHT22;13482;48.234;13.006;2023-09-18T00:28:11;20.80;66.20
25616;DHT22;13482;48.234;13.006;2023-09-18T00:30:42;20.80;66.40
25616;DHT22;13482;48.234;13.006;2023-09-18T00:33:15;20.80;66.60
25616;DHT22;13482;48.234;13.006;2023-09-18T00:35:50;20.70;66.40
25616;DHT22;13482;48.234;13.006;2023-09-18T00:38:18;20.70;66.40
25616;DHT22;13482;48.234;13.006;2023-09-18T00:40:46;20.60;66.20
25616;DHT22;13482;48.234;13.006;2023-09-18T00:43:14;20.60;66.40
25616;DHT22;13482;48.234;13.006;2023-09-18T00:45:44;20.50;66.50
25616;DHT22;13482;48.234;13.006;2023-09-18T00:48:15;20.50;66.80
25616;DHT22;13482;48.234;13.006;2023-09-18T00:50:47;20.50;66.90
25616;DHT22;13482;48.234;13.006;2023-09-18T00:53:21;20.50;67.40
25616;DHT22;13482;48.234;13.006;2023-09-18T00:55:56;20.40;67.40
25616;DHT22;13482;48.234;13.006;2023-09-18T00:58:25;20.40;67.00
25616;DHT22;13482;48.234;13.006;2023-09-18T01:00:53;20.30;66.70
25616;DHT22;13482;48.234;13.006;2023-09-18T01:03:21;20.30;66.60
25616;DHT22;13482;48.234;13.006;2023-09-18T01:05:50;20.30;66.90
25616;DHT22;13482;48.234;13.006;2023-09-18T01:08:17;20.20;66.80
25616;DHT22;13482;48.234;13.006;2023-09-18T01:13:43;20.20;67.40
25616;DHT22;13482;48.234;13.006;2023-09-18T01:16:39;20.20;66.60
25616;DHT22;13482;48.234;13.006;2023-09-18T01:19:12;20.20;66.80
25616;DHT22;13482;48.234;13.006;2023-09-18T01:21:40;20.10;66.50
25616;DHT22;13482;48.234;13.006;2023-09-18T01:24:07;20.10;66.50
25616;DHT22;13482;48.234;13.006;2023-09-18T01:26:34;20.00;66.60
25616;DHT22;13482;48.234;13.006;2023-09-18T01:29:02;20.00;66.90
25616;DHT22;13482;48.234;13.006;2023-09-18T01:31:29;20.00;66.90
25616;DHT22;13482;48.234;13.006;2023-09-18T01:33:57;19.90;67.00
25616;DHT22;13482;48.234;13.006;2023-09-18T01:36:25;19.90;66.90
25616;DHT22;13482;48.234;13.006;2023-09-18T01:38:53;19.90;67.10
25616;DHT22;13482;48.234;13.006;2023-09-18T01:41:21;19.90;67.30
25616;DHT22;13482;48.234;13.006;2023-09-18T01:43:49;19.90;67.40
25616;DHT22;13482;48.234;13.006;2023-09-18T01:46:17;19.80;67.30
25616;DHT22;13482;48.234;13.006;2023-09-18T01:48:46;19.80;67.40
25616;DHT22;13482;48.234;13.006;2023-09-18T01:51:15;19.80;67.60
25616;DHT22;13482;48.234;13.006;2023-09-18T01:53:43;19.80;67.40
25616;DHT22;13482;48.234;13.006;2023-09-18T01:56:11;19.70;67.20
25616;DHT22;13482;48.234;13.006;2023-09-18T01:58:38;19.70;67.00
25616;DHT22;13482;48.234;13.006;2023-09-18T02:01:06;19.70;67.20
25616;DHT22;13482;48.234;13.006;2023-09-18T02:03:34;19.70;67.30
25616;DHT22;13482;48.234;13.006;2023-09-18T02:06:22;19.60;67.40
25616;DHT22;13482;48.234;13.006;2023-09-18T02:08:50;19.60;67.20
25616;DHT22;13482;48.234;13.006;2023-09-18T02:11:18;19.60;67.40
25616;DHT22;13482;48.234;13.006;2023-09-18T02:13:46;19.60;67.50
25616;DHT22;13482;48.234;13.006;2023-09-18T02:16:13;19.50;67.50
25616;DHT22;13482;48.234;13.006;2023-09-18T02:18:40;19.50;67.60
25616;DHT22;13482;48.234;13.006;2023-09-18T02:21:08;19.50;67.50
25616;DHT22;13482;48.234;13.006;2023-09-18T02:23:35;19.50;67.50
25616;DHT22;13482;48.234;13.006;2023-09-18T02:26:03;19.40;67.40
25616;DHT22;13482;48.234;13.006;2023-09-18T02:28:30;19.40;67.70
25616;DHT22;13482;48.234;13.006;2023-09-18T02:30:58;19.40;67.90
25616;DHT22;13482;48.234;13.006;2023-09-18T02:33:25;19.40;67.90
25616;DHT22;13482;48.234;13.006;2023-09-18T02:35:52;19.30;67.70
25616;DHT22;13482;48.234;13.006;2023-09-18T02:38:20;19.30;67.60
25616;DHT22;13482;48.234;13.006;2023-09-18T02:40:47;19.30;67.80
25616;DHT22;13482;48.234;13.006;2023-09-18T02:43:15;19.30;68.00
25616;DHT22;13482;48.234;13.006;2023-09-18T02:45:42;19.20;67.90
25616;DHT22;13482;48.234;13.006;2023-09-18T02:48:12;19.20;67.70
25616;DHT22;13482;48.234;13.006;2023-09-18T02:50:39;19.20;67.80
25616;DHT22;13482;48.234;13.006;2023-09-18T02:53:11;19.10;68.00
25616;DHT22;13482;48.234;13.006;2023-09-18T02:55:55;19.10;68.20
25616;DHT22;13482;48.234;13.006;2023-09-18T02:58:26;19.10;68.50
25616;DHT22;13482;48.234;13.006;2023-09-18T03:00:57;19.10;68.40
25616;DHT22;13482;48.234;13.006;2023-09-18T03:03:29;19.00;68.60
25616;DHT22;13482;48.234;13.006;2023-09-18T03:06:01;19.00;68.70
25616;DHT22;13482;48.234;13.006;2023-09-18T03:08:33;19.00;68.70
25616;DHT22;13482;48.234;13.006;2023-09-18T03:11:02;18.90;68.70
25616;DHT22;13482;48.234;13.006;2023-09-18T03:13:31;18.90;68.80
25616;DHT22;13482;48.234;13.006;2023-09-18T03:15:58;18.90;68.60
25616;DHT22;13482;48.234;13.006;2023-09-18T03:18:26;18.90;68.40
25616;DHT22;13482;48.234;13.006;2023-09-18T03:20:53;18.90;68.30
25616;DHT22;13482;48.234;13.006;2023-09-18T03:23:21;18.80;68.30
25616;DHT22;13482;48.234;13.006;2023-09-18T03:25:48;18.80;68.40
25616;DHT22;13482;48.234;13.006;2023-09-18T03:28:18;18.80;68.60
25616;DHT22;13482;48.234;13.006;2023-09-18T03:30:45;18.80;68.80
25616;DHT22;13482;48.234;13.006;2023-09-18T03:33:13;18.70;68.60
25616;DHT22;13482;48.234;13.006;2023-09-18T03:35:48;18.70;68.70
25616;DHT22;13482;48.234;13.006;2023-09-18T03:38:17;18.70;68.80
25616;DHT22;13482;48.234;13.006;2023-09-18T03:40:45;18.70;68.50
25616;DHT22;13482;48.234;13.006;2023-09-18T03:43:12;18.60;68.40
25616;DHT22;13482;48.234;13.006;2023-09-18T03:45:40;18.60;68.40
25616;DHT22;13482;48.234;13.006;2023-09-18T03:48:10;18.60;68.40
25616;DHT22;13482;48.234;13.006;2023-09-18T03:50:38;18.50;68.50
25616;DHT22;13482;48.234;13.006;2023-09-18T03:53:08;18.50;68.70
25616;DHT22;13482;48.234;13.006;2023-09-18T03:55:36;18.50;68.90
25616;DHT22;13482;48.234;13.006;2023-09-18T03:58:05;18.50;69.30
25616;DHT22;13482;48.234;13.006;2023-09-18T04:00:33;18.50;69.40
25616;DHT22;13482;48.234;13.006;2023-09-18T04:03:00;18.50;69.60
25616;DHT22;13482;48.234;13.006;2023-09-18T04:05:28;18.40;69.60
25616;DHT22;13482;48.234;13.006;2023-09-18T04:07:55;18.40;69.50
25616;DHT22;13482;48.234;13.006;2023-09-18T04:10:22;18.40;69.30
25616;DHT22;13482;48.234;13.006;2023-09-18T04:12:51;18.40;69.20
25616;DHT22;13482;48.234;13.006;2023-09-18T04:15:19;18.40;69.20
25616;DHT22;13482;48.234;13.006;2023-09-18T04:17:48;18.40;69.10
25616;DHT22;13482;48.234;13.006;2023-09-18T04:20:16;18.40;69.00
25616;DHT22;13482;48.234;13.006;2023-09-18T04:22:45;18.40;69.10
25616;DHT22;13482;48.234;13.006;2023-09-18T04:25:18;18.40;69.20
25616;DHT22;13482;48.234;13.006;2023-09-18T04:27:47;18.30;69.10
25616;DHT22;13482;48.234;13.006;2023-09-18T04:30:17;18.30;69.30
25616;DHT22;13482;48.234;13.006;2023-09-18T04:32:47;18.30;69.50
25616;DHT22;13482;48.234;13.006;2023-09-18T04:35:15;18.30;69.80
25616;DHT22;13482;48.234;13.006;2023-09-18T04:37:42;18.30;69.90
25616;DHT22;13482;48.234;13.006;2023-09-18T04:40:10;18.30;70.00
25616;DHT22;13482;48.234;13.006;2023-09-18T04:42:39;18.20;69.90
25616;DHT22;13482;48.234;13.006;2023-09-18T04:45:07;18.20;69.70
25616;DHT22;13482;48.234;13.006;2023-09-18T04:47:35;18.20;69.90
25616;DHT22;13482;48.234;13.006;2023-09-18T04:50:03;18.20;70.00
25616;DHT22;13482;48.234;13.006;2023-09-18T04:52:39;18.20;70.20
25616;DHT22;13482;48.234;13.006;2023-09-18T04:55:10;18.20;70.00
25616;DHT22;13482;48.234;13.006;2023-09-18T04:57:38;18.10;70.10
25616;DHT22;13482;48.234;13.006;2023-09-18T05:00:06;18.10;70.10
25616;DHT22;13482;48.234;13.006;2023-09-18T05:02:44;18.10;70.10
25616;DHT22;13482;48.234;13.006;2023-09-18T05:05:12;18.10;70.00
25616;DHT22;13482;48.234;13.006;2023-09-18T05:07:42;18.10;70.00
25616;DHT22;13482;48.234;13.006;2023-09-18T05:10:10;18.10;70.10
25616;DHT22;13482;48.234;13.006;2023-09-18T05:12:39;18.10;70.30
25616;DHT22;13482;48.234;13.006;2023-09-18T05:15:08;18.10;70.40
25616;DHT22;13482;48.234;13.006;2023-09-18T05:17:44;18.10;70.30
25616;DHT22;13482;48.234;13.006;2023-09-18T05:20:19;18.10;70.20
25616;DHT22;13482;48.234;13.006;2023-09-18T05:22:47;18.10;70.50
25616;DHT22;13482;48.234;13.006;2023-09-18T05:25:14;18.10;70.70
25616;DHT22;13482;48.234;13.006;2023-09-18T05:27:42;18.20;71.00
25616;DHT22;13482;48.234;13.006;2023-09-18T05:30:17;18.20;71.20
25616;DHT22;13482;48.234;13.006;2023-09-18T05:32:48;18.20;71.30
25616;DHT22;13482;48.234;13.006;2023-09-18T05:35:16;18.30;71.20
25616;DHT22;13482;48.234;13.006;2023-09-18T05:37:44;18.30;71.20
25616;DHT22;13482;48.234;13.006;2023-09-18T05:40:13;18.40;71.40
25616;DHT22;13482;48.234;13.006;2023-09-18T05:42:42;18.50;71.60
25616;DHT22;13482;48.234;13.006;2023-09-18T05:45:11;18.50;71.90
25616;DHT22;13482;48.234;13.006;2023-09-18T05:47:41;18.60;72.20
25616;DHT22;13482;48.234;13.006;2023-09-18T05:50:12;18.70;72.60
25616;DHT22;13482;48.234;13.006;2023-09-18T05:52:42;18.70;72.90
25616;DHT22;13482;48.234;13.006;2023-09-18T05:55:12;18.90;73.60
25616;DHT22;13482;48.234;13.006;2023-09-18T05:57:40;19.00;72.40
25616;DHT22;13482;48.234;13.006;2023-09-18T06:00:09;19.10;72.60
25616;DHT22;13482;48.234;13.006;2023-09-18T06:02:41;19.20;72.90
25616;DHT22;13482;48.234;13.006;2023-09-18T06:05:09;19.30;73.10
25616;DHT22;13482;48.234;13.006;2023-09-18T06:07:39;19.30;73.30
25616;DHT22;13482;48.234;13.006;2023-09-18T06:10:07;19.50;73.40
25616;DHT22;13482;48.234;13.006;2023-09-18T06:12:38;19.60;73.50
25616;DHT22;13482;48.234;13.006;2023-09-18T06:15:08;19.70;73.70
25616;DHT22;13482;48.234;13.006;2023-09-18T06:17:41;19.80;73.60
25616;DHT22;13482;48.234;13.006;2023-09-18T06:20:10;20.00;73.60
25616;DHT22;13482;48.234;13.006;2023-09-18T06:22:43;20.10;73.70
25616;DHT22;13482;48.234;13.006;2023-09-18T06:25:11;20.20;73.60
25616;DHT22;13482;48.234;13.006;2023-09-18T06:27:38;20.40;73.60
25616;DHT22;13482;48.234;13.006;2023-09-18T06:30:06;20.50;73.60
25616;DHT22;13482;48.234;13.006;2023-09-18T06:32:34;20.60;73.60
25616;DHT22;13482;48.234;13.006;2023-09-18T06:35:04;20.70;73.50
25616;DHT22;13482;48.234;13.006;2023-09-18T06:37:32;20.90;73.60
25616;DHT22;13482;48.234;13.006;2023-09-18T06:40:00;21.00;73.60
25616;DHT22;13482;48.234;13.006;2023-09-18T06:42:32;21.10;73.60
25616;DHT22;13482;48.234;13.006;2023-09-18T06:44:59;21.30;73.50
25616;DHT22;13482;48.234;13.006;2023-09-18T06:47:28;21.40;73.30
25616;DHT22;13482;48.234;13.006;2023-09-18T06:49:56;21.50;73.40
25616;DHT22;13482;48.234;13.006;2023-09-18T06:52:24;21.70;73.20
25616;DHT22;13482;48.234;13.006;2023-09-18T06:54:54;21.80;72.90
25616;DHT22;13482;48.234;13.006;2023-09-18T06:57:21;21.90;72.70
25616;DHT22;13482;48.234;13.006;2023-09-18T06:59:49;22.00;72.50
25616;DHT22;13482;48.234;13.006;2023-09-18T07:02:16;22.10;72.30
25616;DHT22;13482;48.234;13.006;2023-09-18T07:04:44;22.10;72.00
25616;DHT22;13482;48.234;13.006;2023-09-18T07:07:13;22.20;72.00
25616;DHT22;13482;48.234;13.006;2023-09-18T07:09:42;22.30;72.00
25616;DHT22;13482;48.234;13.006;2023-09-18T07:12:30;22.30;72.00
25616;DHT22;13482;48.234;13.006;2023-09-18T07:15:00;22.40;71.80
25616;DHT22;13482;48.234;13.006;2023-09-18T07:17:33;22.50;71.70
25616;DHT22;13482;48.234;13.006;2023-09-18T07:20:03;22.50;71.70
25616;DHT22;13482;48.234;13.006;2023-09-18T07:22:46;22.60;71.90
25616;DHT22;13482;48.234;13.006;2023-09-18T07:25:15;22.70;72.30
25616;DHT22;13482;48.234;13.006;2023-09-18T07:27:44;22.80;72.30
25616;DHT22;13482;48.234;13.006;2023-09-18T07:30:12;22.90;72.40
25616;DHT22;13482;48.234;13.006;2023-09-18T07:32:44;23.00;72.50
25616;DHT22;13482;48.234;13.006;2023-09-18T07:35:12;23.20;72.50
25616;DHT22;13482;48.234;13.006;2023-09-18T07:37:42;23.30;72.30
25616;DHT22;13482;48.234;13.006;2023-09-18T07:40:12;23.50;72.00
25616;DHT22;13482;48.234;13.006;2023-09-18T07:42:39;23.60;71.60
25616;DHT22;13482;48.234;13.006;2023-09-18T07:45:07;23.70;71.40
25616;DHT22;13482;48.234;13.006;2023-09-18T07:47:35;23.80;71.20
25616;DHT22;13482;48.234;13.006;2023-09-18T07:50:02;23.90;71.00
25616;DHT22;13482;48.234;13.006;2023-09-18T07:52:30;23.90;70.90
25616;DHT22;13482;48.234;13.006;2023-09-18T07:54:59;24.00;70.90
25616;DHT22;13482;48.234;13.006;2023-09-18T07:57:27;24.10;70.90
25616;DHT22;13482;48.234;13.006;2023-09-18T07:59:59;24.20;70.80
25616;DHT22;13482;48.234;13.006;2023-09-18T08:02:29;24.30;70.60
25616;DHT22;13482;48.234;13.006;2023-09-18T08:04:59;24.30;70.50
25616;DHT22;13482;48.234;13.006;2023-09-18T08:07:26;24.40;70.50
25616;DHT22;13482;48.234;13.006;2023-09-18T08:09:55;24.50;70.50
25616;DHT22;13482;48.234;13.006;2023-09-18T08:12:23;24.60;70.60
25616;DHT22;13482;48.234;13.006;2023-09-18T08:14:51;24.70;70.80
25616;DHT22;13482;48.234;13.006;2023-09-18T08:17:18;24.80;70.90
25616;DHT22;13482;48.234;13.006;2023-09-18T08:19:46;24.90;70.90
25616;DHT22;13482;48.234;13.006;2023-09-18T08:22:19;25.10;71.00
25616;DHT22;13482;48.234;13.006;2023-09-18T08:24:48;25.30;71.00
25616;DHT22;13482;48.234;13.006;2023-09-18T08:27:17;25.40;70.80
25616;DHT22;13482;48.234;13.006;2023-09-18T08:29:46;25.60;70.70
25616;DHT22;13482;48.234;13.006;2023-09-18T08:32:13;25.80;70.40
25616;DHT22;13482;48.234;13.006;2023-09-18T08:34:41;26.00;70.00
25616;DHT22;13482;48.234;13.006;2023-09-18T08:37:09;26.20;70.20
25616;DHT22;13482;48.234;13.006;2023-09-18T08:39:36;26.30;70.30
25616;DHT22;13482;48.234;13.006;2023-09-18T15:34:06;24.30;64.40
25616;DHT22;13482;48.234;13.006;2023-09-18T15:41:35;24.00;65.00
25616;DHT22;13482;48.234;13.006;2023-09-18T15:45:22;23.90;64.30
25616;DHT22;13482;48.234;13.006;2023-09-18T16:05:36;23.40;65.80
25616;DHT22;13482;48.234;13.006;2023-09-18T16:08:34;23.30;66.70
25616;DHT22;13482;48.234;13.006;2023-09-18T16:11:28;23.20;65.90
25616;DHT22;13482;48.234;13.006;2023-09-18T16:14:20;23.00;65.70
25616;DHT22;13482;48.234;13.006;2023-09-18T16:17:12;22.90;66.10
25616;DHT22;13482;48.234;13.006;2023-09-18T16:20:00;22.80;66.40
25616;DHT22;13482;48.234;13.006;2023-09-18T16:22:36;22.70;66.90
25616;DHT22;13482;48.234;13.006;2023-09-18T16:25:16;22.50;66.80
25616;DHT22;13482;48.234;13.006;2023-09-18T16:27:46;22.40;67.00
25616;DHT22;13482;48.234;13.006;2023-09-18T16:30:15;22.30;67.50
25616;DHT22;13482;48.234;13.006;2023-09-18T16:32:50;22.20;67.60
25616;DHT22;13482;48.234;13.006;2023-09-18T16:35:29;22.20;67.80
25616;DHT22;13482;48.234;13.006;2023-09-18T16:38:00;22.10;67.90
25616;DHT22;13482;48.234;13.006;2023-09-18T16:40:31;22.10;68.10
25616;DHT22;13482;48.234;13.006;2023-09-18T16:43:04;22.10;68.30
25616;DHT22;13482;48.234;13.006;2023-09-18T16:45:34;22.10;68.20
25616;DHT22;13482;48.234;13.006;2023-09-18T16:48:03;22.10;68.30
25616;DHT22;13482;48.234;13.006;2023-09-18T16:50:37;22.10;68.30
25616;DHT22;13482;48.234;13.006;2023-09-18T16:53:22;22.10;68.40
25616;DHT22;13482;48.234;13.006;2023-09-18T16:55:56;22.10;68.30
25616;DHT22;13482;48.234;13.006;2023-09-18T16:58:37;22.10;68.50
25616;DHT22;13482;48.234;13.006;2023-09-18T17:01:24;22.10;68.80
25616;DHT22;13482;48.234;13.006;2023-09-18T17:04:14;22.10;68.50
25616;DHT22;13482;48.234;13.006;2023-09-18T17:06:52;22.10;68.40
25616;DHT22;13482;48.234;13.006;2023-09-18T17:09:38;22.10;68.40
25616;DHT22;13482;48.234;13.006;2023-09-18T17:12:13;22.10;68.50
25616;DHT22;13482;48.234;13.006;2023-09-18T17:14:47;22.10;68.60
25616;DHT22;13482;48.234;13.006;2023-09-18T17:17:34;22.20;68.60
25616;DHT22;13482;48.234;13.006;2023-09-18T17:20:08;22.20;68.60
25616;DHT22;13482;48.234;13.006;2023-09-18T17:22:48;22.20;68.60
25616;DHT22;13482;48.234;13.006;2023-09-18T17:25:25;22.20;69.10
25616;DHT22;13482;48.234;13.006;2023-09-18T17:27:59;22.20;68.80
25616;DHT22;13482;48.234;13.006;2023-09-18T17:30:47;22.20;68.90
25616;DHT22;13482;48.234;13.006;2023-09-18T17:33:21;22.20;68.80
25616;DHT22;13482;48.234;13.006;2023-09-18T17:35:57;22.20;68.80
25616;DHT22;13482;48.234;13.006;2023-09-18T17:38:30;22.10;69.00
25616;DHT22;13482;48.234;13.006;2023-09-18T17:41:02;22.10;69.10
25616;DHT22;13482;48.234;13.006;2023-09-18T17:43:33;22.10;69.00
25616;DHT22;13482;48.234;13.006;2023-09-18T17:46:02;22.10;69.00
25616;DHT22;13482;48.234;13.006;2023-09-18T17:48:54;22.10;69.20
25616;DHT22;13482;48.234;13.006;2023-09-18T17:51:35;22.10;69.20
25616;DHT22;13482;48.234;13.006;2023-09-18T17:54:24;22.10;69.20
25616;DHT22;13482;48.234;13.006;2023-09-18T17:56:54;22.10;69.30
25616;DHT22;13482;48.234;13.006;2023-09-18T17:59:32;22.10;69.40
25616;DHT22;13482;48.234;13.006;2023-09-18T18:02:09;22.10;69.50
25616;DHT22;13482;48.234;13.006;2023-09-18T18:04:55;22.10;69.60
25616;DHT22;13482;48.234;13.006;2023-09-18T18:07:29;22.10;69.50
25616;DHT22;13482;48.234;13.006;2023-09-18T18:10:09;22.10;69.30
25616;DHT22;13482;48.234;13.006;2023-09-18T18:12:46;22.10;69.40
25616;DHT22;13482;48.234;13.006;2023-09-18T18:15:18;22.10;69.60
25616;DHT22;13482;48.234;13.006;2023-09-18T18:17:56;22.10;69.60
25616;DHT22;13482;48.234;13.006;2023-09-18T18:20:33;22.10;69.60
25616;DHT22;13482;48.234;13.006;2023-09-18T18:23:06;22.10;69.50
25616;DHT22;13482;48.234;13.006;2023-09-18T18:25:43;22.10;69.40
25616;DHT22;13482;48.234;13.006;2023-09-18T18:28:27;22.10;69.30
25616;DHT22;13482;48.234;13.006;2023-09-18T18:31:06;22.10;69.40
25616;DHT22;13482;48.234;13.006;2023-09-18T18:33:45;22.10;69.30
25616;DHT22;13482;48.234;13.006;2023-09-18T18:36:20;22.10;69.50
25616;DHT22;13482;48.234;13.006;2023-09-18T18:39:01;22.10;69.50
25616;DHT22;13482;48.234;13.006;2023-09-18T18:42:06;22.10;69.40
25616;DHT22;13482;48.234;13.006;2023-09-18T18:44:54;22.10;69.80
25616;DHT22;13482;48.234;13.006;2023-09-18T18:47:45;22.10;69.10
25616;DHT22;13482;48.234;13.006;2023-09-18T18:50:18;22.10;69.20
25616;DHT22;13482;48.234;13.006;2023-09-18T18:52:55;22.10;69.20
25616;DHT22;13482;48.234;13.006;2023-09-18T18:55:37;22.10;69.30
25616;DHT22;13482;48.234;13.006;2023-09-18T18:58:14;22.10;69.30
25616;DHT22;13482;48.234;13.006;2023-09-18T19:00:58;22.10;69.40
25616;DHT22;13482;48.234;13.006;2023-09-18T19:03:37;22.10;69.80
25616;DHT22;13482;48.234;13.006;2023-09-18T19:06:10;22.10;69.70
25616;DHT22;13482;48.234;13.006;2023-09-18T19:08:45;22.00;69.80
25616;DHT22;13482;48.234;13.006;2023-09-18T19:11:16;22.10;69.80
25616;DHT22;13482;48.234;13.006;2023-09-18T19:13:48;22.00;69.70
25616;DHT22;13482;48.234;13.006;2023-09-18T19:16:20;22.00;69.80
25616;DHT22;13482;48.234;13.006;2023-09-18T19:18:50;22.00;69.90
25616;DHT22;13482;48.234;13.006;2023-09-18T19:21:22;22.00;70.00
25616;DHT22;13482;48.234;13.006;2023-09-18T19:23:59;22.00;69.80
25616;DHT22;13482;48.234;13.006;2023-09-18T19:26:38;21.90;69.80
25616;DHT22;13482;48.234;13.006;2023-09-18T19:29:25;21.90;70.00
25616;DHT22;13482;48.234;13.006;2023-09-18T19:32:16;21.90;69.90
25616;DHT22;13482;48.234;13.006;2023-09-18T19:35:01;21.90;69.90
25616;DHT22;13482;48.234;13.006;2023-09-18T19:37:44;21.90;70.00
25616;DHT22;13482;48.234;13.006;2023-09-18T19:40:20;21.80;70.00
25616;DHT22;13482;48.234;13.006;2023-09-18T19:42:53;21.80;70.00
25616;DHT22;13482;48.234;13.006;2023-09-18T19:45:23;21.80;70.00
25616;DHT22;13482;48.234;13.006;2023-09-18T19:47:56;21.80;70.00
25616;DHT22;13482;48.234;13.006;2023-09-18T19:50:33;21.70;70.00
25616;DHT22;13482;48.234;13.006;2023-09-18T19:53:05;21.70;70.30
25616;DHT22;13482;48.234;13.006;2023-09-18T19:55:54;21.70;70.20
25616;DHT22;13482;48.234;13.006;2023-09-18T19:58:35;21.60;70.20
25616;DHT22;13482;48.234;13.006;2023-09-18T20:01:27;21.60;70.10
25616;DHT22;13482;48.234;13.006;2023-09-18T20:04:13;21.60;70.30
25616;DHT22;13482;48.234;13.006;2023-09-18T20:06:48;21.60;69.80
25616;DHT22;13482;48.234;13.006;2023-09-18T20:09:24;21.60;70.10
25616;DHT22;13482;48.234;13.006;2023-09-18T20:11:58;21.50;70.20
25616;DHT22;13482;48.234;13.006;2023-09-18T20:14:35;21.50;70.30
25616;DHT22;13482;48.234;13.006;2023-09-18T20:17:22;21.50;70.40
25616;DHT22;13482;48.234;13.006;2023-09-18T20:19:58;21.40;70.50
25616;DHT22;13482;48.234;13.006;2023-09-18T20:22:31;21.40;70.50
25616;DHT22;13482;48.234;13.006;2023-09-18T20:25:10;21.40;70.70
25616;DHT22;13482;48.234;13.006;2023-09-18T20:27:52;21.40;70.80
25616;DHT22;13482;48.234;13.006;2023-09-18T20:30:27;21.40;70.80
25616;DHT22;13482;48.234;13.006;2023-09-18T20:33:09;21.30;70.90
25616;DHT22;13482;48.234;13.006;2023-09-18T20:35:50;21.30;70.80
25616;DHT22;13482;48.234;13.006;2023-09-18T20:38:34;21.30;70.90
25616;DHT22;13482;48.234;13.006;2023-09-18T20:41:09;21.30;70.90
25616;DHT22;13482;48.234;13.006;2023-09-18T20:43:42;21.30;70.80
25616;DHT22;13482;48.234;13.006;2023-09-18T20:46:19;21.30;70.70
25616;DHT22;13482;48.234;13.006;2023-09-18T20:48:53;21.30;70.60
25616;DHT22;13482;48.234;13.006;2023-09-18T20:51:33;21.30;70.60
25616;DHT22;13482;48.234;13.006;2023-09-18T20:54:04;21.30;70.60
25616;DHT22;13482;48.234;13.006;2023-09-18T20:56:47;21.30;70.60
25616;DHT22;13482;48.234;13.006;2023-09-18T20:59:35;21.20;70.60
25616;DHT22;13482;48.234;13.006;2023-09-18T21:02:21;21.30;70.50
25616;DHT22;13482;48.234;13.006;2023-09-18T21:04:54;21.20;70.40
25616;DHT22;13482;48.234;13.006;2023-09-18T21:07:27;21.20;70.50
25616;DHT22;13482;48.234;13.006;2023-09-18T21:10:01;21.20;70.50
25616;DHT22;13482;48.234;13.006;2023-09-18T21:12:45;21.20;70.50
25616;DHT22;13482;48.234;13.006;2023-09-18T21:15:21;21.20;70.70
25616;DHT22;13482;48.234;13.006;2023-09-18T21:17:53;21.20;70.90
25616;DHT22;13482;48.234;13.006;2023-09-18T21:20:34;21.20;71.00
25616;DHT22;13482;48.234;13.006;2023-09-18T21:23:25;21.20;70.90
25616;DHT22;13482;48.234;13.006;2023-09-18T21:25:57;21.20;71.00
25616;DHT22;13482;48.234;13.006;2023-09-18T21:28:45;21.20;70.90
25616;DHT22;13482;48.234;13.006;2023-09-18T21:31:25;21.10;70.90
25616;DHT22;13482;48.234;13.006;2023-09-18T21:33:59;21.10;71.20
25616;DHT22;13482;48.234;13.006;2023-09-18T21:36:30;21.10;71.20
25616;DHT22;13482;48.234;13.006;2023-09-18T21:39:09;21.10;71.10
25616;DHT22;13482;48.234;13.006;2023-09-18T21:41:50;21.10;71.20
25616;DHT22;13482;48.234;13.006;2023-09-18T21:44:20;21.10;71.20
25616;DHT22;13482;48.234;13.006;2023-09-18T21:46:51;21.10;71.40
25616;DHT22;13482;48.234;13.006;2023-09-18T21:49:28;21.00;71.30
25616;DHT22;13482;48.234;13.006;2023-09-18T21:52:08;21.00;71.40
25616;DHT22;13482;48.234;13.006;2023-09-18T21:54:52;21.00;71.70
25616;DHT22;13482;48.234;13.006;2023-09-18T21:57:27;20.90;71.40
25616;DHT22;13482;48.234;13.006;2023-09-18T22:00:03;20.90;71.60
25616;DHT22;13482;48.234;13.006;2023-09-18T22:02:56;20.90;71.70
25616;DHT22;13482;48.234;13.006;2023-09-18T22:05:30;20.80;71.70
25616;DHT22;13482;48.234;13.006;2023-09-18T22:08:00;20.80;71.90
25616;DHT22;13482;48.234;13.006;2023-09-18T22:10:31;20.80;71.80
25616;DHT22;13482;48.234;13.006;2023-09-18T22:13:04;20.70;71.90
25616;DHT22;13482;48.234;13.006;2023-09-18T22:15:37;20.70;72.10
25616;DHT22;13482;48.234;13.006;2023-09-18T22:18:22;20.70;72.20
25616;DHT22;13482;48.234;13.006;2023-09-18T22:20:55;20.70;72.20
25616;DHT22;13482;48.234;13.006;2023-09-18T22:23:41;20.70;72.30
25616;DHT22;13482;48.234;13.006;2023-09-18T22:26:12;20.70;72.20
25616;DHT22;13482;48.234;13.006;2023-09-18T22:28:42;20.70;72.30
25616;DHT22;13482;48.234;13.006;2023-09-18T22:31:11;20.70;72.40
25616;DHT22;13482;48.234;13.006;2023-09-18T22:33:42;20.70;72.40
25616;DHT22;13482;48.234;13.006;2023-09-18T22:36:16;20.70;72.30
25616;DHT22;13482;48.234;13.006;2023-09-18T22:55:22;20.70;72.60
25616;DHT22;13482;48.234;13.006;2023-09-18T22:57:57;20.70;72.20
25616;DHT22;13482;48.234;13.006;2023-09-18T23:00:31;20.70;72.40
25616;DHT22;13482;48.234;13.006;2023-09-18T23:03:05;20.60;72.40
25616;DHT22;13482;48.234;13.006;2023-09-18T23:05:38;20.60;72.50
25616;DHT22;13482;48.234;13.006;2023-09-18T23:08:12;20.60;72.50
25616;DHT22;13482;48.234;13.006;2023-09-18T23:10:42;20.60;72.70
25616;DHT22;13482;48.234;13.006;2023-09-18T23:13:13;20.50;72.60
25616;DHT22;13482;48.234;13.006;2023-09-18T23:15:45;20.50;72.70
25616;DHT22;13482;48.234;13.006;2023-09-18T23:18:30;20.50;72.70
25616;DHT22;13482;48.234;13.006;2023-09-18T23:21:09;20.40;72.70
25616;DHT22;13482;48.234;13.006;2023-09-18T23:23:54;20.40;72.80
25616;DHT22;13482;48.234;13.006;2023-09-18T23:26:31;20.40;72.90